Аэропорт: Уфа. Уфа

ICAO: UWUU

METAR:
2018/09/23 11:00
UWUU 231100Z 13002MPS 060V180 9999 BKN026 20/14 Q1019 R14R/0///60 NOSIG RMK QFE754/1005
METAR:
2018/09/23 09:24
TAF UWUU 230753Z 2309/2409 18003G08MPS 4500 BR BKN011 
      TEMPO 2309/2318 VRB01MPS 2100 BR BKN007 
      TEMPO 2318/2406 VRB01MPS 0300 FG VV002